sensor_id;sensor_type;location;lat;lon;timestamp;P1;durP1;ratioP1;P2;durP2;ratioP2
68214;SDS011;55036;52.138;5.236;2024-01-07T00:02:25;11.98;;;7.82;;
68214;SDS011;55036;52.138;5.236;2024-01-07T00:04:52;11.73;;;8.20;;
68214;SDS011;55036;52.138;5.236;2024-01-07T00:07:19;12.10;;;7.15;;
68214;SDS011;55036;52.138;5.236;2024-01-07T00:09:47;15.30;;;9.88;;
68214;SDS011;55036;52.138;5.236;2024-01-07T00:12:13;12.77;;;8.98;;
68214;SDS011;55036;52.138;5.236;2024-01-07T00:14:40;16.30;;;10.30;;
68214;SDS011;55036;52.138;5.236;2024-01-07T00:17:07;15.20;;;9.18;;
68214;SDS011;55036;52.138;5.236;2024-01-07T00:19:35;15.65;;;9.95;;
68214;SDS011;55036;52.138;5.236;2024-01-07T00:22:03;14.50;;;9.75;;
68214;SDS011;55036;52.138;5.236;2024-01-07T00:24:30;15.85;;;9.75;;
68214;SDS011;55036;52.138;5.236;2024-01-07T00:26:57;14.07;;;9.80;;
68214;SDS011;55036;52.138;5.236;2024-01-07T00:29:24;14.90;;;8.93;;
68214;SDS011;55036;52.138;5.236;2024-01-07T00:31:50;13.57;;;8.85;;
68214;SDS011;55036;52.138;5.236;2024-01-07T00:34:17;15.65;;;9.77;;
68214;SDS011;55036;52.138;5.236;2024-01-07T00:36:44;15.52;;;10.23;;
68214;SDS011;55036;52.138;5.236;2024-01-07T00:39:11;15.55;;;9.60;;
68214;SDS011;55036;52.138;5.236;2024-01-07T00:41:37;16.85;;;10.13;;
68214;SDS011;55036;52.138;5.236;2024-01-07T01:19:24;13.32;;;7.93;;
68214;SDS011;55036;52.138;5.236;2024-01-07T01:21:52;12.68;;;8.82;;
68214;SDS011;55036;52.138;5.236;2024-01-07T01:24:18;15.32;;;9.15;;
68214;SDS011;55036;52.138;5.236;2024-01-07T01:26:45;12.75;;;7.63;;
68214;SDS011;55036;52.138;5.236;2024-01-07T01:29:12;12.82;;;9.00;;
68214;SDS011;55036;52.138;5.236;2024-01-07T01:31:38;12.88;;;8.65;;
68214;SDS011;55036;52.138;5.236;2024-01-07T01:34:05;15.18;;;9.32;;
68214;SDS011;55036;52.138;5.236;2024-01-07T01:36:32;11.05;;;7.57;;
68214;SDS011;55036;52.138;5.236;2024-01-07T01:38:59;12.55;;;9.13;;
68214;SDS011;55036;52.138;5.236;2024-01-07T01:41:26;10.25;;;7.53;;
68214;SDS011;55036;52.138;5.236;2024-01-07T01:43:56;10.90;;;8.05;;
68214;SDS011;55036;52.138;5.236;2024-01-07T01:46:24;13.68;;;8.75;;
68214;SDS011;55036;52.138;5.236;2024-01-07T01:48:51;12.18;;;8.23;;
68214;SDS011;55036;52.138;5.236;2024-01-07T01:51:18;14.00;;;8.32;;
68214;SDS011;55036;52.138;5.236;2024-01-07T01:53:45;13.50;;;8.77;;
68214;SDS011;55036;52.138;5.236;2024-01-07T01:56:16;16.00;;;9.68;;
68214;SDS011;55036;52.138;5.236;2024-01-07T01:58:44;13.93;;;7.55;;
68214;SDS011;55036;52.138;5.236;2024-01-07T02:01:11;11.82;;;8.48;;
68214;SDS011;55036;52.138;5.236;2024-01-07T02:03:39;12.13;;;8.23;;
68214;SDS011;55036;52.138;5.236;2024-01-07T02:06:06;14.30;;;9.00;;
68214;SDS011;55036;52.138;5.236;2024-01-07T02:08:33;12.10;;;7.93;;
68214;SDS011;55036;52.138;5.236;2024-01-07T02:11:13;14.90;;;9.65;;
68214;SDS011;55036;52.138;5.236;2024-01-07T02:13:44;14.45;;;9.35;;
68214;SDS011;55036;52.138;5.236;2024-01-07T02:16:11;15.73;;;9.57;;
68214;SDS011;55036;52.138;5.236;2024-01-07T02:18:40;16.92;;;10.13;;
68214;SDS011;55036;52.138;5.236;2024-01-07T02:21:09;16.50;;;9.60;;
68214;SDS011;55036;52.138;5.236;2024-01-07T02:23:36;16.80;;;10.82;;
68214;SDS011;55036;52.138;5.236;2024-01-07T02:26:03;17.35;;;10.48;;
68214;SDS011;55036;52.138;5.236;2024-01-07T02:28:31;19.27;;;10.98;;
68214;SDS011;55036;52.138;5.236;2024-01-07T02:30:59;19.23;;;11.35;;
68214;SDS011;55036;52.138;5.236;2024-01-07T02:33:26;17.05;;;9.80;;
68214;SDS011;55036;52.138;5.236;2024-01-07T02:35:53;21.50;;;12.27;;
68214;SDS011;55036;52.138;5.236;2024-01-07T02:38:19;20.52;;;11.90;;
68214;SDS011;55036;52.138;5.236;2024-01-07T02:40:46;18.35;;;9.98;;
68214;SDS011;55036;52.138;5.236;2024-01-07T02:43:13;19.15;;;11.38;;
68214;SDS011;55036;52.138;5.236;2024-01-07T02:45:40;17.80;;;11.32;;
68214;SDS011;55036;52.138;5.236;2024-01-07T02:48:07;17.20;;;9.93;;
68214;SDS011;55036;52.138;5.236;2024-01-07T02:50:33;19.45;;;12.23;;
68214;SDS011;55036;52.138;5.236;2024-01-07T02:53:00;20.90;;;11.50;;
68214;SDS011;55036;52.138;5.236;2024-01-07T02:55:27;22.38;;;11.15;;
68214;SDS011;55036;52.138;5.236;2024-01-07T02:57:53;18.85;;;11.68;;
68214;SDS011;55036;52.138;5.236;2024-01-07T03:00:20;22.85;;;12.50;;
68214;SDS011;55036;52.138;5.236;2024-01-07T03:02:47;19.50;;;11.20;;
68214;SDS011;55036;52.138;5.236;2024-01-07T03:05:14;21.52;;;13.25;;
68214;SDS011;55036;52.138;5.236;2024-01-07T03:07:41;17.40;;;10.70;;
68214;SDS011;55036;52.138;5.236;2024-01-07T03:10:07;19.65;;;11.85;;
68214;SDS011;55036;52.138;5.236;2024-01-07T03:12:35;20.42;;;12.10;;
68214;SDS011;55036;52.138;5.236;2024-01-07T03:15:01;21.25;;;11.57;;
68214;SDS011;55036;52.138;5.236;2024-01-07T03:17:28;17.45;;;10.68;;
68214;SDS011;55036;52.138;5.236;2024-01-07T03:19:55;19.23;;;10.90;;
68214;SDS011;55036;52.138;5.236;2024-01-07T03:22:22;17.05;;;10.63;;
68214;SDS011;55036;52.138;5.236;2024-01-07T03:24:49;15.15;;;10.30;;
68214;SDS011;55036;52.138;5.236;2024-01-07T03:27:16;18.38;;;10.35;;
68214;SDS011;55036;52.138;5.236;2024-01-07T03:29:43;19.15;;;11.70;;
68214;SDS011;55036;52.138;5.236;2024-01-07T03:32:09;18.35;;;11.27;;
68214;SDS011;55036;52.138;5.236;2024-01-07T03:34:36;17.98;;;10.50;;
68214;SDS011;55036;52.138;5.236;2024-01-07T03:37:05;17.60;;;10.50;;
68214;SDS011;55036;52.138;5.236;2024-01-07T03:39:32;20.70;;;11.95;;
68214;SDS011;55036;52.138;5.236;2024-01-07T03:42:00;18.90;;;11.65;;
68214;SDS011;55036;52.138;5.236;2024-01-07T03:44:27;23.42;;;12.30;;
68214;SDS011;55036;52.138;5.236;2024-01-07T03:46:53;18.50;;;10.60;;
68214;SDS011;55036;52.138;5.236;2024-01-07T03:49:20;20.58;;;11.35;;
68214;SDS011;55036;52.138;5.236;2024-01-07T03:51:47;12.85;;;7.20;;
68214;SDS011;55036;52.138;5.236;2024-01-07T03:54:14;21.42;;;12.40;;
68214;SDS011;55036;52.138;5.236;2024-01-07T03:56:40;20.60;;;11.23;;
68214;SDS011;55036;52.138;5.236;2024-01-07T03:59:07;18.48;;;11.40;;
68214;SDS011;55036;52.138;5.236;2024-01-07T04:01:34;16.17;;;9.70;;
68214;SDS011;55036;52.138;5.236;2024-01-07T04:04:01;20.58;;;10.93;;
68214;SDS011;55036;52.138;5.236;2024-01-07T04:06:28;21.27;;;11.93;;
68214;SDS011;55036;52.138;5.236;2024-01-07T04:08:55;14.98;;;8.15;;
68214;SDS011;55036;52.138;5.236;2024-01-07T04:11:22;24.42;;;13.38;;
68214;SDS011;55036;52.138;5.236;2024-01-07T04:13:48;26.33;;;14.45;;
68214;SDS011;55036;52.138;5.236;2024-01-07T04:16:18;22.45;;;12.73;;
68214;SDS011;55036;52.138;5.236;2024-01-07T04:18:46;14.55;;;7.82;;
68214;SDS011;55036;52.138;5.236;2024-01-07T04:21:19;19.50;;;10.10;;
68214;SDS011;55036;52.138;5.236;2024-01-07T04:23:45;23.20;;;13.52;;
68214;SDS011;55036;52.138;5.236;2024-01-07T04:26:12;26.15;;;13.18;;
68214;SDS011;55036;52.138;5.236;2024-01-07T04:28:42;22.45;;;13.32;;
68214;SDS011;55036;52.138;5.236;2024-01-07T04:31:09;21.63;;;11.63;;
68214;SDS011;55036;52.138;5.236;2024-01-07T04:33:37;17.77;;;10.55;;
68214;SDS011;55036;52.138;5.236;2024-01-07T04:36:04;23.00;;;12.48;;
68214;SDS011;55036;52.138;5.236;2024-01-07T04:38:31;28.27;;;14.40;;
68214;SDS011;55036;52.138;5.236;2024-01-07T04:40:58;29.30;;;14.43;;
68214;SDS011;55036;52.138;5.236;2024-01-07T04:43:24;14.57;;;8.88;;
68214;SDS011;55036;52.138;5.236;2024-01-07T04:45:51;19.98;;;12.07;;
68214;SDS011;55036;52.138;5.236;2024-01-07T04:48:18;18.52;;;11.32;;
68214;SDS011;55036;52.138;5.236;2024-01-07T04:50:45;14.73;;;8.82;;
68214;SDS011;55036;52.138;5.236;2024-01-07T04:53:12;20.10;;;11.95;;
68214;SDS011;55036;52.138;5.236;2024-01-07T04:55:39;15.73;;;11.63;;
68214;SDS011;55036;52.138;5.236;2024-01-07T04:58:05;19.88;;;11.90;;
68214;SDS011;55036;52.138;5.236;2024-01-07T05:00:32;18.17;;;10.95;;
68214;SDS011;55036;52.138;5.236;2024-01-07T05:02:59;18.35;;;10.93;;
68214;SDS011;55036;52.138;5.236;2024-01-07T05:05:26;15.07;;;9.45;;
68214;SDS011;55036;52.138;5.236;2024-01-07T05:07:53;15.52;;;10.68;;
68214;SDS011;55036;52.138;5.236;2024-01-07T05:10:21;18.15;;;10.63;;
68214;SDS011;55036;52.138;5.236;2024-01-07T05:12:47;18.95;;;13.15;;
68214;SDS011;55036;52.138;5.236;2024-01-07T05:15:14;17.40;;;9.90;;
68214;SDS011;55036;52.138;5.236;2024-01-07T05:17:41;16.63;;;9.77;;
68214;SDS011;55036;52.138;5.236;2024-01-07T05:20:08;17.75;;;10.48;;
68214;SDS011;55036;52.138;5.236;2024-01-07T05:22:35;20.38;;;11.38;;
68214;SDS011;55036;52.138;5.236;2024-01-07T05:25:02;18.48;;;10.05;;
68214;SDS011;55036;52.138;5.236;2024-01-07T05:27:30;14.75;;;9.52;;
68214;SDS011;55036;52.138;5.236;2024-01-07T05:29:57;18.17;;;11.50;;
68214;SDS011;55036;52.138;5.236;2024-01-07T05:32:23;15.60;;;9.70;;
68214;SDS011;55036;52.138;5.236;2024-01-07T05:34:50;17.25;;;10.43;;
68214;SDS011;55036;52.138;5.236;2024-01-07T05:37:17;15.90;;;9.70;;
68214;SDS011;55036;52.138;5.236;2024-01-07T05:39:44;16.65;;;10.65;;
68214;SDS011;55036;52.138;5.236;2024-01-07T05:42:10;15.43;;;10.20;;
68214;SDS011;55036;52.138;5.236;2024-01-07T05:44:37;15.15;;;10.15;;
68214;SDS011;55036;52.138;5.236;2024-01-07T05:47:04;16.00;;;10.20;;
68214;SDS011;55036;52.138;5.236;2024-01-07T05:49:31;15.90;;;10.18;;
68214;SDS011;55036;52.138;5.236;2024-01-07T05:51:58;17.90;;;10.25;;
68214;SDS011;55036;52.138;5.236;2024-01-07T05:54:24;15.45;;;9.65;;
68214;SDS011;55036;52.138;5.236;2024-01-07T05:56:53;14.60;;;9.38;;
68214;SDS011;55036;52.138;5.236;2024-01-07T05:59:20;17.20;;;9.90;;
68214;SDS011;55036;52.138;5.236;2024-01-07T06:01:46;14.02;;;9.88;;
68214;SDS011;55036;52.138;5.236;2024-01-07T06:04:13;17.95;;;10.95;;
68214;SDS011;55036;52.138;5.236;2024-01-07T06:06:40;16.63;;;10.55;;
68214;SDS011;55036;52.138;5.236;2024-01-07T06:09:07;21.25;;;12.00;;
68214;SDS011;55036;52.138;5.236;2024-01-07T06:11:34;20.00;;;11.93;;
68214;SDS011;55036;52.138;5.236;2024-01-07T06:14:01;15.57;;;10.65;;
68214;SDS011;55036;52.138;5.236;2024-01-07T06:16:27;18.58;;;11.50;;
68214;SDS011;55036;52.138;5.236;2024-01-07T06:18:54;19.95;;;11.35;;
68214;SDS011;55036;52.138;5.236;2024-01-07T06:21:21;11.85;;;6.93;;
68214;SDS011;55036;52.138;5.236;2024-01-07T06:23:48;16.83;;;10.95;;
68214;SDS011;55036;52.138;5.236;2024-01-07T06:26:15;17.95;;;10.65;;
68214;SDS011;55036;52.138;5.236;2024-01-07T06:28:42;12.95;;;8.07;;
68214;SDS011;55036;52.138;5.236;2024-01-07T06:31:08;16.38;;;10.27;;
68214;SDS011;55036;52.138;5.236;2024-01-07T06:33:35;12.70;;;7.90;;
68214;SDS011;55036;52.138;5.236;2024-01-07T06:36:02;16.55;;;9.45;;
68214;SDS011;55036;52.138;5.236;2024-01-07T06:38:30;14.20;;;8.35;;
68214;SDS011;55036;52.138;5.236;2024-01-07T06:40:57;11.38;;;7.13;;
68214;SDS011;55036;52.138;5.236;2024-01-07T06:43:30;12.20;;;8.25;;
68214;SDS011;55036;52.138;5.236;2024-01-07T06:45:57;14.93;;;9.35;;
68214;SDS011;55036;52.138;5.236;2024-01-07T06:48:23;15.85;;;10.43;;
68214;SDS011;55036;52.138;5.236;2024-01-07T06:50:50;13.55;;;8.15;;
68214;SDS011;55036;52.138;5.236;2024-01-07T06:53:17;12.52;;;9.00;;
68214;SDS011;55036;52.138;5.236;2024-01-07T06:55:44;12.43;;;8.68;;
68214;SDS011;55036;52.138;5.236;2024-01-07T06:58:10;10.85;;;7.72;;
68214;SDS011;55036;52.138;5.236;2024-01-07T07:00:37;14.68;;;8.27;;
68214;SDS011;55036;52.138;5.236;2024-01-07T07:03:05;13.40;;;8.50;;
68214;SDS011;55036;52.138;5.236;2024-01-07T07:05:33;14.10;;;8.80;;
68214;SDS011;55036;52.138;5.236;2024-01-07T07:08:00;12.35;;;7.80;;
68214;SDS011;55036;52.138;5.236;2024-01-07T07:10:27;13.52;;;8.65;;
68214;SDS011;55036;52.138;5.236;2024-01-07T07:12:54;16.33;;;10.02;;
68214;SDS011;55036;52.138;5.236;2024-01-07T07:15:21;15.20;;;9.82;;
68214;SDS011;55036;52.138;5.236;2024-01-07T07:17:48;11.20;;;7.35;;
68214;SDS011;55036;52.138;5.236;2024-01-07T07:20:15;12.32;;;8.27;;
68214;SDS011;55036;52.138;5.236;2024-01-07T07:22:41;12.60;;;8.85;;
68214;SDS011;55036;52.138;5.236;2024-01-07T07:25:08;16.13;;;9.75;;
68214;SDS011;55036;52.138;5.236;2024-01-07T07:27:35;13.27;;;8.10;;
68214;SDS011;55036;52.138;5.236;2024-01-07T07:30:02;15.55;;;9.02;;
68214;SDS011;55036;52.138;5.236;2024-01-07T07:32:29;11.63;;;7.60;;
68214;SDS011;55036;52.138;5.236;2024-01-07T07:34:56;15.65;;;9.52;;
68214;SDS011;55036;52.138;5.236;2024-01-07T07:37:22;11.52;;;7.15;;
68214;SDS011;55036;52.138;5.236;2024-01-07T07:39:49;12.55;;;6.65;;
68214;SDS011;55036;52.138;5.236;2024-01-07T07:42:16;13.23;;;8.43;;
68214;SDS011;55036;52.138;5.236;2024-01-07T07:44:43;11.38;;;7.45;;
68214;SDS011;55036;52.138;5.236;2024-01-07T07:47:10;12.15;;;7.32;;
68214;SDS011;55036;52.138;5.236;2024-01-07T07:49:38;11.10;;;6.72;;
68214;SDS011;55036;52.138;5.236;2024-01-07T07:52:09;11.55;;;8.18;;
68214;SDS011;55036;52.138;5.236;2024-01-07T07:54:39;17.13;;;8.73;;
68214;SDS011;55036;52.138;5.236;2024-01-07T07:57:06;12.45;;;6.13;;
68214;SDS011;55036;52.138;5.236;2024-01-07T07:59:32;12.00;;;6.70;;
68214;SDS011;55036;52.138;5.236;2024-01-07T08:01:59;13.07;;;8.50;;
68214;SDS011;55036;52.138;5.236;2024-01-07T08:04:26;14.32;;;8.27;;
68214;SDS011;55036;52.138;5.236;2024-01-07T08:06:53;14.30;;;8.75;;
68214;SDS011;55036;52.138;5.236;2024-01-07T08:09:22;10.02;;;7.18;;
68214;SDS011;55036;52.138;5.236;2024-01-07T08:11:51;12.45;;;8.20;;
68214;SDS011;55036;52.138;5.236;2024-01-07T08:14:18;9.05;;;6.90;;
68214;SDS011;55036;52.138;5.236;2024-01-07T08:16:44;15.95;;;8.55;;
68214;SDS011;55036;52.138;5.236;2024-01-07T08:19:11;15.02;;;9.55;;
68214;SDS011;55036;52.138;5.236;2024-01-07T08:21:38;12.13;;;8.48;;
68214;SDS011;55036;52.138;5.236;2024-01-07T08:24:05;14.05;;;9.35;;
68214;SDS011;55036;52.138;5.236;2024-01-07T08:26:32;16.63;;;9.05;;
68214;SDS011;55036;52.138;5.236;2024-01-07T08:28:58;15.35;;;9.05;;
68214;SDS011;55036;52.138;5.236;2024-01-07T08:31:25;13.02;;;8.38;;
68214;SDS011;55036;52.138;5.236;2024-01-07T08:33:52;9.75;;;6.72;;
68214;SDS011;55036;52.138;5.236;2024-01-07T08:36:19;13.93;;;8.88;;
68214;SDS011;55036;52.138;5.236;2024-01-07T08:38:46;10.18;;;6.65;;
68214;SDS011;55036;52.138;5.236;2024-01-07T08:41:15;9.68;;;6.60;;
68214;SDS011;55036;52.138;5.236;2024-01-07T08:43:42;11.68;;;7.18;;
68214;SDS011;55036;52.138;5.236;2024-01-07T08:46:10;15.52;;;9.52;;
68214;SDS011;55036;52.138;5.236;2024-01-07T08:48:37;12.85;;;8.75;;
68214;SDS011;55036;52.138;5.236;2024-01-07T08:51:05;10.07;;;7.35;;
68214;SDS011;55036;52.138;5.236;2024-01-07T08:53:31;7.97;;;5.35;;
68214;SDS011;55036;52.138;5.236;2024-01-07T08:55:58;11.73;;;6.97;;
68214;SDS011;55036;52.138;5.236;2024-01-07T08:58:25;10.18;;;6.82;;
68214;SDS011;55036;52.138;5.236;2024-01-07T09:00:52;10.95;;;7.25;;
68214;SDS011;55036;52.138;5.236;2024-01-07T09:03:19;10.15;;;6.88;;
68214;SDS011;55036;52.138;5.236;2024-01-07T09:05:46;11.50;;;6.53;;
68214;SDS011;55036;52.138;5.236;2024-01-07T09:08:12;9.55;;;6.55;;
68214;SDS011;55036;52.138;5.236;2024-01-07T09:10:40;13.90;;;7.68;;
68214;SDS011;55036;52.138;5.236;2024-01-07T09:13:07;15.60;;;7.93;;
68214;SDS011;55036;52.138;5.236;2024-01-07T09:15:34;9.48;;;6.63;;
68214;SDS011;55036;52.138;5.236;2024-01-07T09:18:01;11.27;;;7.20;;
68214;SDS011;55036;52.138;5.236;2024-01-07T09:20:27;12.50;;;7.50;;
68214;SDS011;55036;52.138;5.236;2024-01-07T09:22:55;10.93;;;7.45;;
68214;SDS011;55036;52.138;5.236;2024-01-07T09:25:21;11.38;;;7.28;;
68214;SDS011;55036;52.138;5.236;2024-01-07T09:27:48;12.73;;;9.13;;
68214;SDS011;55036;52.138;5.236;2024-01-07T09:30:15;13.90;;;8.48;;
68214;SDS011;55036;52.138;5.236;2024-01-07T09:32:43;11.43;;;7.47;;
68214;SDS011;55036;52.138;5.236;2024-01-07T09:35:10;13.73;;;8.55;;
68214;SDS011;55036;52.138;5.236;2024-01-07T09:37:37;12.52;;;7.32;;
68214;SDS011;55036;52.138;5.236;2024-01-07T09:40:04;10.10;;;6.68;;
68214;SDS011;55036;52.138;5.236;2024-01-07T09:42:34;15.35;;;7.93;;
68214;SDS011;55036;52.138;5.236;2024-01-07T09:45:01;10.93;;;6.55;;
68214;SDS011;55036;52.138;5.236;2024-01-07T09:47:32;11.55;;;5.65;;
68214;SDS011;55036;52.138;5.236;2024-01-07T09:49:59;11.50;;;6.43;;
68214;SDS011;55036;52.138;5.236;2024-01-07T09:52:25;7.20;;;4.32;;
68214;SDS011;55036;52.138;5.236;2024-01-07T09:54:55;13.25;;;6.03;;
68214;SDS011;55036;52.138;5.236;2024-01-07T09:57:25;11.15;;;6.57;;
68214;SDS011;55036;52.138;5.236;2024-01-07T09:59:52;6.07;;;4.35;;
68214;SDS011;55036;52.138;5.236;2024-01-07T10:02:19;5.47;;;4.28;;
68214;SDS011;55036;52.138;5.236;2024-01-07T10:04:49;9.30;;;5.95;;
68214;SDS011;55036;52.138;5.236;2024-01-07T10:07:16;6.40;;;4.28;;
68214;SDS011;55036;52.138;5.236;2024-01-07T10:09:43;7.53;;;4.82;;
68214;SDS011;55036;52.138;5.236;2024-01-07T10:12:10;10.75;;;5.72;;
68214;SDS011;55036;52.138;5.236;2024-01-07T10:14:38;7.38;;;5.10;;
68214;SDS011;55036;52.138;5.236;2024-01-07T10:17:15;7.88;;;5.57;;
68214;SDS011;55036;52.138;5.236;2024-01-07T10:19:46;5.95;;;3.63;;
68214;SDS011;55036;52.138;5.236;2024-01-07T10:22:13;5.57;;;4.00;;
68214;SDS011;55036;52.138;5.236;2024-01-07T10:24:43;10.20;;;4.40;;
68214;SDS011;55036;52.138;5.236;2024-01-07T10:27:10;9.13;;;4.30;;
68214;SDS011;55036;52.138;5.236;2024-01-07T10:29:37;7.38;;;4.00;;
68214;SDS011;55036;52.138;5.236;2024-01-07T10:32:04;7.43;;;4.13;;
68214;SDS011;55036;52.138;5.236;2024-01-07T10:34:32;4.47;;;3.47;;
68214;SDS011;55036;52.138;5.236;2024-01-07T10:37:03;4.68;;;3.15;;
68214;SDS011;55036;52.138;5.236;2024-01-07T10:39:34;7.53;;;3.90;;
68214;SDS011;55036;52.138;5.236;2024-01-07T10:42:02;7.28;;;4.15;;
68214;SDS011;55036;52.138;5.236;2024-01-07T10:44:30;8.50;;;4.00;;
68214;SDS011;55036;52.138;5.236;2024-01-07T10:46:58;7.18;;;3.42;;
68214;SDS011;55036;52.138;5.236;2024-01-07T10:49:27;6.63;;;3.83;;
68214;SDS011;55036;52.138;5.236;2024-01-07T10:54:25;5.95;;;3.58;;
68214;SDS011;55036;52.138;5.236;2024-01-07T10:56:57;5.07;;;3.00;;
68214;SDS011;55036;52.138;5.236;2024-01-07T10:59:45;3.03;;;2.15;;
68214;SDS011;55036;52.138;5.236;2024-01-07T11:02:12;5.32;;;2.67;;
68214;SDS011;55036;52.138;5.236;2024-01-07T11:07:31;4.45;;;2.53;;
68214;SDS011;55036;52.138;5.236;2024-01-07T11:10:16;4.47;;;2.78;;
68214;SDS011;55036;52.138;5.236;2024-01-07T11:12:55;3.60;;;2.45;;
68214;SDS011;55036;52.138;5.236;2024-01-07T11:18:19;4.00;;;2.55;;
68214;SDS011;55036;52.138;5.236;2024-01-07T11:20:50;4.43;;;2.17;;
68214;SDS011;55036;52.138;5.236;2024-01-07T11:23:26;6.68;;;3.05;;
68214;SDS011;55036;52.138;5.236;2024-01-07T11:25:57;4.00;;;2.67;;
68214;SDS011;55036;52.138;5.236;2024-01-07T11:31:10;3.10;;;2.10;;
68214;SDS011;55036;52.138;5.236;2024-01-07T11:33:38;4.13;;;3.05;;
68214;SDS011;55036;52.138;5.236;2024-01-07T11:36:05;3.45;;;2.63;;
68214;SDS011;55036;52.138;5.236;2024-01-07T11:38:33;5.18;;;2.53;;
68214;SDS011;55036;52.138;5.236;2024-01-07T11:41:03;5.60;;;2.50;;
68214;SDS011;55036;52.138;5.236;2024-01-07T11:43:32;3.60;;;2.55;;
68214;SDS011;55036;52.138;5.236;2024-01-07T11:46:02;4.85;;;2.42;;
68214;SDS011;55036;52.138;5.236;2024-01-07T11:48:29;11.98;;;2.80;;
68214;SDS011;55036;52.138;5.236;2024-01-07T11:50:56;3.58;;;2.38;;
68214;SDS011;55036;52.138;5.236;2024-01-07T11:53:23;5.00;;;2.45;;
68214;SDS011;55036;52.138;5.236;2024-01-07T11:55:50;4.30;;;3.08;;
68214;SDS011;55036;52.138;5.236;2024-01-07T11:58:18;3.72;;;1.80;;
68214;SDS011;55036;52.138;5.236;2024-01-07T12:00:44;3.45;;;1.70;;
68214;SDS011;55036;52.138;5.236;2024-01-07T12:03:11;2.55;;;1.67;;
68214;SDS011;55036;52.138;5.236;2024-01-07T12:05:38;2.08;;;1.30;;
68214;SDS011;55036;52.138;5.236;2024-01-07T12:08:09;4.03;;;2.58;;
68214;SDS011;55036;52.138;5.236;2024-01-07T12:10:37;3.20;;;1.98;;
68214;SDS011;55036;52.138;5.236;2024-01-07T12:13:04;3.88;;;2.47;;
68214;SDS011;55036;52.138;5.236;2024-01-07T12:15:31;8.15;;;2.10;;
68214;SDS011;55036;52.138;5.236;2024-01-07T12:17:59;8.68;;;2.00;;
68214;SDS011;55036;52.138;5.236;2024-01-07T12:20:28;3.90;;;1.75;;
68214;SDS011;55036;52.138;5.236;2024-01-07T12:23:04;3.08;;;1.60;;
68214;SDS011;55036;52.138;5.236;2024-01-07T12:25:35;3.90;;;1.67;;
68214;SDS011;55036;52.138;5.236;2024-01-07T12:28:02;3.58;;;1.92;;
68214;SDS011;55036;52.138;5.236;2024-01-07T12:30:32;2.67;;;1.73;;
68214;SDS011;55036;52.138;5.236;2024-01-07T12:32:59;5.28;;;1.65;;
68214;SDS011;55036;52.138;5.236;2024-01-07T12:35:26;3.80;;;1.80;;
68214;SDS011;55036;52.138;5.236;2024-01-07T12:37:53;3.13;;;1.58;;
68214;SDS011;55036;52.138;5.236;2024-01-07T12:40:22;3.05;;;1.48;;
68214;SDS011;55036;52.138;5.236;2024-01-07T12:42:51;2.20;;;1.50;;
68214;SDS011;55036;52.138;5.236;2024-01-07T12:45:18;3.08;;;1.13;;
68214;SDS011;55036;52.138;5.236;2024-01-07T12:47:44;4.72;;;2.35;;
68214;SDS011;55036;52.138;5.236;2024-01-07T12:50:13;1.67;;;1.27;;
68214;SDS011;55036;52.138;5.236;2024-01-07T12:52:40;6.70;;;2.78;;
68214;SDS011;55036;52.138;5.236;2024-01-07T12:55:07;1.92;;;1.38;;
68214;SDS011;55036;52.138;5.236;2024-01-07T12:57:34;1.58;;;1.20;;
68214;SDS011;55036;52.138;5.236;2024-01-07T13:00:02;2.70;;;1.70;;
68214;SDS011;55036;52.138;5.236;2024-01-07T13:02:32;2.30;;;1.25;;
68214;SDS011;55036;52.138;5.236;2024-01-07T13:05:00;4.70;;;1.48;;
68214;SDS011;55036;52.138;5.236;2024-01-07T13:07:29;3.53;;;1.85;;
68214;SDS011;55036;52.138;5.236;2024-01-07T13:09:56;4.53;;;1.30;;
68214;SDS011;55036;52.138;5.236;2024-01-07T13:12:23;2.58;;;1.35;;
68214;SDS011;55036;52.138;5.236;2024-01-07T13:15:01;1.52;;;1.13;;
68214;SDS011;55036;52.138;5.236;2024-01-07T13:17:29;1.85;;;0.90;;
68214;SDS011;55036;52.138;5.236;2024-01-07T13:19:56;3.15;;;1.70;;
68214;SDS011;55036;52.138;5.236;2024-01-07T13:22:23;3.35;;;1.83;;
68214;SDS011;55036;52.138;5.236;2024-01-07T13:24:50;1.27;;;0.90;;
68214;SDS011;55036;52.138;5.236;2024-01-07T13:27:17;2.05;;;1.38;;
68214;SDS011;55036;52.138;5.236;2024-01-07T13:29:44;2.53;;;1.58;;
68214;SDS011;55036;52.138;5.236;2024-01-07T13:32:14;2.25;;;1.42;;
68214;SDS011;55036;52.138;5.236;2024-01-07T13:34:44;1.10;;;1.00;;
68214;SDS011;55036;52.138;5.236;2024-01-07T13:37:11;2.92;;;1.20;;
68214;SDS011;55036;52.138;5.236;2024-01-07T13:39:38;3.13;;;1.15;;
68214;SDS011;55036;52.138;5.236;2024-01-07T13:42:05;1.83;;;0.88;;
68214;SDS011;55036;52.138;5.236;2024-01-07T13:44:32;1.50;;;1.10;;
68214;SDS011;55036;52.138;5.236;2024-01-07T13:47:00;1.63;;;1.20;;
68214;SDS011;55036;52.138;5.236;2024-01-07T13:49:28;1.33;;;1.13;;
68214;SDS011;55036;52.138;5.236;2024-01-07T13:51:55;2.55;;;1.45;;
68214;SDS011;55036;52.138;5.236;2024-01-07T13:54:21;1.08;;;0.95;;
68214;SDS011;55036;52.138;5.236;2024-01-07T13:56:48;2.90;;;1.58;;
68214;SDS011;55036;52.138;5.236;2024-01-07T13:59:17;1.80;;;1.38;;
68214;SDS011;55036;52.138;5.236;2024-01-07T14:01:44;2.15;;;1.50;;
68214;SDS011;55036;52.138;5.236;2024-01-07T14:04:11;3.65;;;1.58;;
68214;SDS011;55036;52.138;5.236;2024-01-07T14:06:39;4.20;;;1.48;;
68214;SDS011;55036;52.138;5.236;2024-01-07T14:09:06;2.22;;;0.88;;
68214;SDS011;55036;52.138;5.236;2024-01-07T14:11:34;2.10;;;1.38;;
68214;SDS011;55036;52.138;5.236;2024-01-07T14:14:01;2.50;;;1.67;;
68214;SDS011;55036;52.138;5.236;2024-01-07T14:16:28;1.63;;;1.20;;
68214;SDS011;55036;52.138;5.236;2024-01-07T14:18:55;2.15;;;1.45;;
68214;SDS011;55036;52.138;5.236;2024-01-07T14:21:22;2.05;;;1.10;;
68214;SDS011;55036;52.138;5.236;2024-01-07T14:23:49;12.55;;;5.32;;
68214;SDS011;55036;52.138;5.236;2024-01-07T14:26:15;2.13;;;1.00;;
68214;SDS011;55036;52.138;5.236;2024-01-07T14:28:42;3.50;;;1.92;;
68214;SDS011;55036;52.138;5.236;2024-01-07T14:31:09;5.32;;;2.33;;
68214;SDS011;55036;52.138;5.236;2024-01-07T14:33:36;1.52;;;1.00;;
68214;SDS011;55036;52.138;5.236;2024-01-07T14:36:03;1.95;;;1.02;;
68214;SDS011;55036;52.138;5.236;2024-01-07T14:38:30;3.78;;;1.80;;
68214;SDS011;55036;52.138;5.236;2024-01-07T14:40:57;5.32;;;3.00;;
68214;SDS011;55036;52.138;5.236;2024-01-07T14:43:24;1.98;;;1.27;;
68214;SDS011;55036;52.138;5.236;2024-01-07T14:45:51;2.03;;;1.48;;
68214;SDS011;55036;52.138;5.236;2024-01-07T14:48:17;4.32;;;1.50;;
68214;SDS011;55036;52.138;5.236;2024-01-07T14:50:44;1.77;;;1.30;;
68214;SDS011;55036;52.138;5.236;2024-01-07T14:53:14;1.13;;;0.80;;
68214;SDS011;55036;52.138;5.236;2024-01-07T14:55:41;3.20;;;1.95;;
68214;SDS011;55036;52.138;5.236;2024-01-07T14:58:07;3.45;;;1.42;;
68214;SDS011;55036;52.138;5.236;2024-01-07T15:00:34;3.95;;;1.50;;
68214;SDS011;55036;52.138;5.236;2024-01-07T15:03:01;2.03;;;1.17;;
68214;SDS011;55036;52.138;5.236;2024-01-07T15:05:29;1.65;;;1.13;;
68214;SDS011;55036;52.138;5.236;2024-01-07T15:07:55;8.95;;;2.17;;
68214;SDS011;55036;52.138;5.236;2024-01-07T15:10:22;2.00;;;1.33;;
68214;SDS011;55036;52.138;5.236;2024-01-07T15:12:49;5.30;;;1.60;;
68214;SDS011;55036;52.138;5.236;2024-01-07T15:15:27;2.42;;;1.50;;
68214;SDS011;55036;52.138;5.236;2024-01-07T15:17:56;2.28;;;1.33;;
68214;SDS011;55036;52.138;5.236;2024-01-07T15:20:23;2.45;;;1.20;;
68214;SDS011;55036;52.138;5.236;2024-01-07T15:22:50;1.52;;;1.13;;
68214;SDS011;55036;52.138;5.236;2024-01-07T15:25:18;2.60;;;1.40;;